Time;durP1;ratioP1;P1;durP2;ratioP2;P2;SDS_P1;SDS_P2;PMS_P1;PMS_P2;Temp;Humidity;BMP_temperature;BMP_pressure;BME280_temperature;BME280_humidity;BME280_pressure;Samples;Min_cycle;Max_cycle;Signal;HPM_P1;HPM_P2
2022/01/01 00:00:45;;;;;;;;;;;;;;;3.20;81.19;95734.63;5116433;28;1968;-46
2022/01/01 00:03:11;;;;;;;;;;;;;;;3.31;82.22;95740.88;5115254;28;991;-45
2022/01/01 00:05:37;;;;;;;;;;;;;;;3.35;82.18;95744.16;5116357;28;1028;-46
2022/01/01 00:08:05;;;;;;;;;;;;;;;3.37;81.71;95746.72;5116194;28;963;-45
2022/01/01 00:10:32;;;;;;;;;;;;;;;3.43;81.97;95741.84;5116591;28;1049;-46
2022/01/01 00:12:58;;;;;;;;;;;;;;;3.35;81.51;95738.03;5116226;28;1157;-46
2022/01/01 00:15:24;;;;;;;;;;;;;;;3.20;82.08;95740.75;5116191;28;1104;-46
2022/01/01 00:17:50;;;;;;;;;;;;;;;3.16;81.99;95739.25;5115973;28;1076;-45
2022/01/01 00:20:16;;;;;;;;;;;;;;;3.32;81.65;95741.75;5116127;28;960;-46
2022/01/01 00:22:43;;;;;;;;;;;;;;;3.30;81.56;95733.91;5115853;28;2003;-46
2022/01/01 00:25:09;;;;;;;;;;;;;;;3.15;81.25;95728.78;5116063;28;1043;-46
2022/01/01 00:27:35;;;;;;;;;;;;;;;3.03;81.70;95730.44;5115926;28;1839;-46
2022/01/01 00:30:02;;;;;;;;;;;;;;;3.00;82.11;95728.00;5115926;28;1075;-46
2022/01/01 00:32:28;;;;;;;;;;;;;;;2.92;82.29;95724.09;5115937;28;1067;-46
2022/01/01 00:34:54;;;;;;;;;;;;;;;3.03;82.15;95727.81;5116034;28;1014;-46
2022/01/01 00:37:20;;;;;;;;;;;;;;;3.15;82.49;95732.28;5115745;28;1055;-46
2022/01/01 00:39:46;;;;;;;;;;;;;;;3.31;82.16;95729.47;5115965;28;971;-46
2022/01/01 00:42:13;;;;;;;;;;;;;;;3.34;82.24;95729.28;5115691;28;1914;-46
2022/01/01 00:44:39;;;;;;;;;;;;;;;3.26;82.62;95726.28;5115695;28;1023;-46
2022/01/01 00:47:05;;;;;;;;;;;;;;;2.96;79.93;95742.34;5115710;28;997;-46
2022/01/01 00:49:31;;;;;;;;;;;;;;;2.86;82.29;95748.22;5115600;28;1056;-45
2022/01/01 00:51:57;;;;;;;;;;;;;;;3.01;84.59;95737.63;5115353;28;976;-46
2022/01/01 00:54:23;;;;;;;;;;;;;;;3.14;83.28;95730.59;5115439;28;2126;-46
2022/01/01 00:56:49;;;;;;;;;;;;;;;3.30;83.35;95718.06;5115675;28;1055;-46
2022/01/01 00:59:15;;;;;;;;;;;;;;;2.97;80.92;95721.13;5115262;28;984;-46
2022/01/01 01:01:41;;;;;;;;;;;;;;;2.92;82.43;95718.78;5115269;28;1906;-46
2022/01/01 01:04:07;;;;;;;;;;;;;;;2.79;82.51;95719.69;5114948;28;1019;-46
2022/01/01 01:06:33;;;;;;;;;;;;;;;2.77;83.41;95711.00;5115320;28;972;-46
2022/01/01 01:09:00;;;;;;;;;;;;;;;2.95;82.13;95701.06;5115429;28;1059;-46
2022/01/01 01:11:27;;;;;;;;;;;;;;;2.97;82.15;95700.00;5115039;28;1201;-46
2022/01/01 01:14:06;;;;;;;;;;;;;;;3.02;82.17;95687.34;5114757;28;1268;-46
2022/01/01 01:16:32;;;;;;;;;;;;;;;2.99;82.36;95684.03;5115085;28;1088;-46
2022/01/01 01:18:59;;;;;;;;;;;;;;;2.96;82.47;95678.94;5115011;28;928;-46
2022/01/01 01:21:25;;;;;;;;;;;;;;;2.86;81.18;95676.06;5115167;28;1981;-46
2022/01/01 01:23:51;;;;;;;;;;;;;;;2.80;81.87;95682.59;5114671;28;1083;-46
2022/01/01 01:26:17;;;;;;;;;;;;;;;2.81;81.92;95670.25;5115157;28;1006;-46
2022/01/01 01:28:49;;;;;;;;;;;;;;;2.83;82.26;95679.78;5114748;28;1035;-46
2022/01/01 01:31:16;;;;;;;;;;;;;;;2.84;82.07;95683.25;5114931;28;994;-46
2022/01/01 01:33:43;;;;;;;;;;;;;;;2.84;82.06;95685.91;5114669;28;984;-46
2022/01/01 01:36:10;;;;;;;;;;;;;;;2.92;82.23;95684.47;5114697;28;1051;-45
2022/01/01 01:38:36;;;;;;;;;;;;;;;2.96;81.83;95685.09;5114715;28;1023;-46
2022/01/01 01:41:06;;;;;;;;;;;;;;;3.02;82.10;95687.34;5114622;28;1910;-46
2022/01/01 01:43:33;;;;;;;;;;;;;;;2.94;81.24;95684.38;5114502;28;1011;-46
2022/01/01 01:46:04;;;;;;;;;;;;;;;2.79;82.11;95694.13;5114504;28;1028;-45
2022/01/01 01:48:31;;;;;;;;;;;;;;;2.83;82.15;95689.50;5114172;28;992;-46
2022/01/01 01:50:57;;;;;;;;;;;;;;;2.90;81.71;95688.13;5114547;28;1002;-46
2022/01/01 01:53:23;;;;;;;;;;;;;;;2.81;82.30;95692.25;5114235;28;1631;-46
2022/01/01 01:55:49;;;;;;;;;;;;;;;2.84;82.55;95699.94;5114439;28;988;-46
2022/01/01 01:58:16;;;;;;;;;;;;;;;2.83;82.06;95689.50;5114252;28;1024;-45
2022/01/01 02:03:17;;;;;;;;;;;;;;;2.96;83.13;95686.88;5113920;28;1036;-46
2022/01/01 02:05:45;;;;;;;;;;;;;;;2.93;82.90;95678.22;5114367;28;984;-46
2022/01/01 02:08:11;;;;;;;;;;;;;;;3.07;82.79;95679.09;5114228;28;980;-46
2022/01/01 02:10:37;;;;;;;;;;;;;;;3.04;82.41;95680.16;5113673;28;960;-46
2022/01/01 02:13:20;;;;;;;;;;;;;;;3.06;82.61;95675.59;5114201;28;1157;-46
2022/01/01 02:16:39;;;;;;;;;;;;;;;3.05;82.58;95683.63;5113831;28;1258;-45
2022/01/01 02:18:32;;;;;;;;;;;;;;;3.01;83.00;95682.16;5106311;28;1430;-46
2022/01/01 02:20:58;;;;;;;;;;;;;;;3.17;84.03;95677.53;5114094;28;1906;-46
2022/01/01 02:23:26;;;;;;;;;;;;;;;3.28;82.96;95677.66;5113914;28;1034;-46
2022/01/01 02:25:54;;;;;;;;;;;;;;;3.35;83.23;95669.31;5114149;28;1059;-46
2022/01/01 02:28:20;;;;;;;;;;;;;;;3.09;82.35;95678.06;5113804;28;944;-46
2022/01/01 02:30:47;;;;;;;;;;;;;;;3.14;84.24;95675.09;5113654;28;1066;-46
2022/01/01 02:33:13;;;;;;;;;;;;;;;3.14;84.11;95693.59;5113757;28;1079;-46
2022/01/01 02:35:39;;;;;;;;;;;;;;;3.15;82.93;95687.38;5113786;28;988;-46
2022/01/01 02:38:06;;;;;;;;;;;;;;;3.14;82.92;95675.09;5113828;28;968;-46
2022/01/01 02:40:32;;;;;;;;;;;;;;;3.12;84.17;95682.28;5113474;28;1901;-46
2022/01/01 02:42:58;;;;;;;;;;;;;;;3.16;83.48;95681.13;5113880;28;989;-45
2022/01/01 02:45:25;;;;;;;;;;;;;;;3.22;82.84;95672.78;5113772;28;1040;-46
2022/01/01 02:47:51;;;;;;;;;;;;;;;3.21;82.89;95686.94;5113556;28;1015;-46
2022/01/01 02:50:18;;;;;;;;;;;;;;;3.08;82.57;95683.44;5113763;28;971;-46
2022/01/01 02:52:47;;;;;;;;;;;;;;;2.97;81.29;95681.50;5113907;28;985;-45
2022/01/01 02:55:13;;;;;;;;;;;;;;;2.90;82.38;95682.84;5113498;28;1063;-46
2022/01/01 02:57:39;;;;;;;;;;;;;;;2.87;82.85;95689.19;5113509;28;1055;-45
2022/01/01 03:00:05;;;;;;;;;;;;;;;2.77;82.87;95690.75;5113314;28;1183;-45
2022/01/01 03:02:31;;;;;;;;;;;;;;;2.97;83.59;95684.13;5113403;28;1906;-46
2022/01/01 03:04:57;;;;;;;;;;;;;;;2.83;83.10;95676.31;5113400;28;1015;-46
2022/01/01 03:07:24;;;;;;;;;;;;;;;2.80;82.98;95672.03;5113626;28;1059;-46
2022/01/01 03:09:50;;;;;;;;;;;;;;;2.82;83.29;95672.78;5113529;28;992;-46
2022/01/01 03:12:16;;;;;;;;;;;;;;;2.66;83.38;95680.03;5113568;28;1291;-46
2022/01/01 03:14:42;;;;;;;;;;;;;;;2.60;82.78;95661.94;5113213;28;1090;-46
2022/01/01 03:17:08;;;;;;;;;;;;;;;2.50;82.20;95670.47;5113492;28;936;-46
2022/01/01 03:19:35;;;;;;;;;;;;;;;2.51;82.46;95674.78;5113230;28;1079;-45
2022/01/01 03:22:01;;;;;;;;;;;;;;;2.42;82.66;95664.00;5116204;28;1909;-46
2022/01/01 03:24:27;;;;;;;;;;;;;;;2.27;83.20;95652.63;5117395;28;920;-46
2022/01/01 03:26:53;;;;;;;;;;;;;;;2.32;83.44;95653.19;5117112;28;1968;-45
2022/01/01 03:29:19;;;;;;;;;;;;;;;2.29;83.42;95661.28;5117224;28;988;-46
2022/01/01 03:31:45;;;;;;;;;;;;;;;2.36;83.31;95670.50;5117300;28;1138;-46
2022/01/01 03:34:11;;;;;;;;;;;;;;;2.50;83.09;95657.28;5116972;28;1048;-45
2022/01/01 03:36:38;;;;;;;;;;;;;;;2.47;83.49;95648.72;5117269;28;1003;-46
2022/01/01 03:39:04;;;;;;;;;;;;;;;2.47;83.83;95657.47;5116983;28;1066;-46
2022/01/01 03:41:30;;;;;;;;;;;;;;;2.52;82.54;95658.03;5116968;28;1993;-46
2022/01/01 03:43:56;;;;;;;;;;;;;;;2.51;82.15;95655.47;5117104;28;1055;-46
2022/01/01 03:46:22;;;;;;;;;;;;;;;2.45;82.62;95646.16;5116908;28;1058;-46
2022/01/01 03:48:48;;;;;;;;;;;;;;;2.38;82.47;95658.06;5116943;28;1000;-46
2022/01/01 03:51:14;;;;;;;;;;;;;;;2.49;83.12;95646.81;5116901;28;1059;-45
2022/01/01 03:53:40;;;;;;;;;;;;;;;2.62;84.73;95639.78;5116772;28;1471;-46
2022/01/01 03:56:07;;;;;;;;;;;;;;;2.62;84.92;95637.16;5116626;28;1003;-46
2022/01/01 03:58:33;;;;;;;;;;;;;;;2.71;85.24;95633.91;5116831;28;1038;-44
2022/01/01 04:00:59;;;;;;;;;;;;;;;2.76;84.43;95636.22;5116474;28;1992;-46
2022/01/01 04:03:25;;;;;;;;;;;;;;;2.72;83.43;95647.94;5116707;28;944;-46
2022/01/01 04:05:52;;;;;;;;;;;;;;;2.73;83.87;95647.84;5116257;28;1041;-46
2022/01/01 04:08:18;;;;;;;;;;;;;;;2.73;83.93;95645.22;5116453;28;928;-46
2022/01/01 04:10:44;;;;;;;;;;;;;;;2.77;83.83;95642.34;5116364;28;972;-46
2022/01/01 04:13:11;;;;;;;;;;;;;;;2.83;84.06;95641.97;5116594;28;1153;-44
2022/01/01 04:15:38;;;;;;;;;;;;;;;2.88;84.47;95646.00;5116008;28;1059;-46
2022/01/01 04:18:09;;;;;;;;;;;;;;;2.78;83.18;95652.81;5116268;28;984;-45
2022/01/01 04:20:35;;;;;;;;;;;;;;;2.73;83.30;95655.78;5116101;28;2012;-45
2022/01/01 04:23:06;;;;;;;;;;;;;;;2.70;83.69;95653.31;5116123;28;1090;-46
2022/01/01 04:25:32;;;;;;;;;;;;;;;2.59;83.05;95660.25;5115938;28;1043;-45
2022/01/01 04:27:58;;;;;;;;;;;;;;;2.45;84.09;95645.31;5116004;28;1090;-46
2022/01/01 04:30:25;;;;;;;;;;;;;;;2.32;83.65;95663.75;5115999;28;1035;-46
2022/01/01 04:32:51;;;;;;;;;;;;;;;2.43;83.58;95653.34;5115276;28;1052;-46
2022/01/01 04:35:17;;;;;;;;;;;;;;;2.48;84.31;95645.09;5115892;28;1031;-46
2022/01/01 04:37:43;;;;;;;;;;;;;;;2.43;84.87;95641.91;5115801;28;960;-46
2022/01/01 04:40:09;;;;;;;;;;;;;;;2.47;85.60;95638.16;5116077;28;979;-46
2022/01/01 04:42:35;;;;;;;;;;;;;;;2.37;86.33;95648.44;5115516;28;1930;-46
2022/01/01 04:45:01;;;;;;;;;;;;;;;2.39;85.84;95649.22;5115833;28;1048;-44
2022/01/01 04:47:27;;;;;;;;;;;;;;;2.32;84.97;95640.81;5115674;28;1047;-44
2022/01/01 04:49:54;;;;;;;;;;;;;;;2.45;85.08;95637.41;5115857;28;1028;-46
2022/01/01 04:52:20;;;;;;;;;;;;;;;2.46;85.46;95629.38;5115735;28;960;-45
2022/01/01 04:54:46;;;;;;;;;;;;;;;2.48;85.16;95624.00;5115763;28;1039;-46
2022/01/01 04:57:12;;;;;;;;;;;;;;;2.54;84.89;95634.13;5115309;28;1020;-46
2022/01/01 04:59:39;;;;;;;;;;;;;;;2.60;84.68;95641.69;5115582;28;984;-46
2022/01/01 05:02:06;;;;;;;;;;;;;;;2.52;84.83;95633.41;5115310;27;2006;-46
2022/01/01 05:04:32;;;;;;;;;;;;;;;2.37;84.12;95626.47;5115381;28;1058;-46
2022/01/01 05:06:58;;;;;;;;;;;;;;;2.41;84.22;95633.25;5115055;28;1028;-45
2022/01/01 05:09:24;;;;;;;;;;;;;;;2.45;84.87;95634.78;5115557;28;1037;-46
2022/01/01 05:11:50;;;;;;;;;;;;;;;2.51;84.93;95632.56;5115202;28;1153;-46
2022/01/01 05:14:16;;;;;;;;;;;;;;;2.59;84.28;95632.06;5115004;28;1107;-46
2022/01/01 05:16:42;;;;;;;;;;;;;;;2.56;84.52;95637.53;5114985;28;994;-46
2022/01/01 05:19:09;;;;;;;;;;;;;;;2.47;84.88;95639.00;5115122;28;1043;-46
2022/01/01 05:21:36;;;;;;;;;;;;;;;2.52;85.33;95649.22;5114671;28;1910;-45
2022/01/01 05:24:05;;;;;;;;;;;;;;;2.59;85.30;95642.63;5114857;28;1023;-45
2022/01/01 05:26:34;;;;;;;;;;;;;;;2.70;84.95;95639.28;5114939;28;1016;-44
2022/01/01 05:29:00;;;;;;;;;;;;;;;2.71;84.90;95643.59;5115096;27;1036;-46
2022/01/01 05:31:27;;;;;;;;;;;;;;;2.69;84.03;95637.56;5114499;28;1090;-46
2022/01/01 05:33:55;;;;;;;;;;;;;;;2.73;84.34;95641.69;5114791;28;1048;-45
2022/01/01 05:36:21;;;;;;;;;;;;;;;2.70;84.58;95652.47;5114848;28;988;-46
2022/01/01 05:38:47;;;;;;;;;;;;;;;2.73;84.74;95649.63;5114554;28;1028;-45
2022/01/01 05:41:13;;;;;;;;;;;;;;;2.62;85.09;95637.16;5114662;28;1902;-46
2022/01/01 05:43:39;;;;;;;;;;;;;;;2.73;85.04;95646.97;5114311;28;988;-46
2022/01/01 05:46:05;;;;;;;;;;;;;;;2.71;84.20;95654.16;5114104;28;1051;-46
2022/01/01 05:48:32;;;;;;;;;;;;;;;2.64;83.71;95651.09;5114315;28;1025;-45
2022/01/01 05:50:58;;;;;;;;;;;;;;;2.78;83.42;95644.91;5114348;28;1033;-46
2022/01/01 05:53:25;;;;;;;;;;;;;;;2.89;83.12;95639.75;5114617;28;979;-45
2022/01/01 05:55:51;;;;;;;;;;;;;;;2.81;83.50;95642.06;5114509;28;1048;-46
2022/01/01 05:58:17;;;;;;;;;;;;;;;2.62;83.08;95652.13;5114193;28;1193;-45
2022/01/01 06:00:43;;;;;;;;;;;;;;;2.58;83.07;95655.91;5114062;28;1913;-45
2022/01/01 06:03:10;;;;;;;;;;;;;;;2.59;83.87;95652.34;5114386;28;980;-45
2022/01/01 06:05:37;;;;;;;;;;;;;;;2.62;85.71;95658.28;5114443;28;1026;-44
2022/01/01 06:08:03;;;;;;;;;;;;;;;2.76;86.09;95661.78;5114306;28;1058;-44
2022/01/01 06:10:29;;;;;;;;;;;;;;;2.68;85.15;95664.94;5114333;28;1076;-45
2022/01/01 06:12:56;;;;;;;;;;;;;;;2.61;84.43;95668.91;5114094;28;1153;-44
2022/01/01 06:15:22;;;;;;;;;;;;;;;2.59;84.17;95676.09;5113863;28;1196;-46
2022/01/01 06:17:48;;;;;;;;;;;;;;;2.77;83.81;95660.84;5114082;28;988;-46
2022/01/01 06:20:14;;;;;;;;;;;;;;;3.02;83.35;95654.78;5113967;28;993;-45
2022/01/01 06:22:41;;;;;;;;;;;;;;;3.00;82.55;95651.38;5113996;28;1994;-46
2022/01/01 06:25:07;;;;;;;;;;;;;;;2.67;82.34;95655.31;5114194;28;973;-44
2022/01/01 06:27:33;;;;;;;;;;;;;;;2.69;82.78;95650.78;5113919;28;1039;-45
2022/01/01 06:29:59;;;;;;;;;;;;;;;2.81;82.78;95641.19;5114042;28;999;-44
2022/01/01 06:32:25;;;;;;;;;;;;;;;2.70;82.02;95650.69;5113648;28;1071;-45
2022/01/01 06:34:51;;;;;;;;;;;;;;;2.59;83.04;95652.34;5113666;28;1102;-44
2022/01/01 06:37:17;;;;;;;;;;;;;;;2.69;82.88;95653.41;5113992;28;1043;-45
2022/01/01 06:39:43;;;;;;;;;;;;;;;2.84;82.77;95655.03;5113549;28;1152;-45
2022/01/01 06:42:09;;;;;;;;;;;;;;;3.08;81.12;95662.28;5113998;28;1909;-45
2022/01/01 06:44:35;;;;;;;;;;;;;;;4.21;78.02;95668.59;5113716;28;1019;-45
2022/01/01 06:47:01;;;;;;;;;;;;;;;7.73;66.31;95666.84;5113935;28;1039;-45
2022/01/01 06:49:27;;;;;;;;;;;;;;;10.13;57.35;95678.16;5113441;28;1092;-45
2022/01/01 06:51:53;;;;;;;;;;;;;;;11.84;51.90;95679.38;5113910;28;976;-47
2022/01/01 06:54:19;;;;;;;;;;;;;;;10.02;55.93;95677.50;5113712;28;969;-47
2022/01/01 06:56:45;;;;;;;;;;;;;;;8.29;61.97;95678.88;5116160;28;1028;-46
2022/01/01 06:59:11;;;;;;;;;;;;;;;7.17;66.49;95683.91;5117728;28;932;-45
2022/01/01 07:01:37;;;;;;;;;;;;;;;5.87;70.11;95675.66;5117574;28;1910;-45
2022/01/01 07:04:03;;;;;;;;;;;;;;;5.31;73.69;95666.75;5117375;28;1040;-46
2022/01/01 07:06:30;;;;;;;;;;;;;;;5.61;74.03;95652.94;5117615;28;1078;-45
2022/01/01 07:08:56;;;;;;;;;;;;;;;9.07;64.60;95645.28;5117682;28;976;-46
2022/01/01 07:11:23;;;;;;;;;;;;;;;13.29;50.66;95659.75;5117477;28;1995;-47
2022/01/01 07:13:49;;;;;;;;;;;;;;;10.57;56.60;95664.25;5117366;28;1080;-47
2022/01/01 07:16:14;;;;;;;;;;;;;;;9.45;60.70;95650.75;5117504;28;1079;-45
2022/01/01 07:18:40;;;;;;;;;;;;;;;8.10;64.69;95663.66;5117166;28;1876;-45
2022/01/01 07:21:06;;;;;;;;;;;;;;;8.21;65.36;95661.75;5117471;28;1958;-46
2022/01/01 07:23:32;;;;;;;;;;;;;;;8.16;66.84;95652.47;5117150;28;1832;-46
2022/01/01 07:25:58;;;;;;;;;;;;;;;7.49;69.53;95665.25;5117191;28;1087;-45
2022/01/01 07:28:25;;;;;;;;;;;;;;;7.14;69.65;95681.53;5117203;27;1012;-45
2022/01/01 07:30:51;;;;;;;;;;;;;;;6.50;71.85;95693.78;5117160;28;981;-45
2022/01/01 07:33:17;;;;;;;;;;;;;;;6.62;71.31;95676.00;5117125;28;984;-45
2022/01/01 07:35:42;;;;;;;;;;;;;;;6.26;73.26;95675.34;5116899;28;1035;-45
2022/01/01 07:38:09;;;;;;;;;;;;;;;5.58;75.38;95672.59;5116972;28;1072;-46
2022/01/01 07:40:35;;;;;;;;;;;;;;;4.91;77.55;95665.28;5117150;28;992;-45
2022/01/01 07:43:02;;;;;;;;;;;;;;;4.70;78.67;95654.47;5117151;28;1925;-45
2022/01/01 07:45:28;;;;;;;;;;;;;;;5.27;77.61;95655.53;5116572;28;1277;-45
2022/01/01 07:47:54;;;;;;;;;;;;;;;5.76;75.81;95661.53;5116872;28;1032;-45
2022/01/01 07:50:20;;;;;;;;;;;;;;;6.04;74.64;95665.56;5116704;28;979;-45
2022/01/01 07:52:46;;;;;;;;;;;;;;;6.33;73.28;95673.88;5116988;28;969;-46
2022/01/01 07:55:12;;;;;;;;;;;;;;;6.54;73.29;95684.59;5116717;28;1056;-45
2022/01/01 07:57:38;;;;;;;;;;;;;;;6.65;72.46;95694.34;5116965;28;1058;-45
2022/01/01 08:00:07;;;;;;;;;;;;;;;7.11;71.86;95679.13;5116396;28;1028;-45
2022/01/01 08:02:43;;;;;;;;;;;;;;;7.29;71.18;95688.25;5116538;28;1897;-45
2022/01/01 08:05:09;;;;;;;;;;;;;;;7.43;69.83;95689.72;5116355;28;1079;-45
2022/01/01 08:07:35;;;;;;;;;;;;;;;6.82;71.62;95685.84;5115742;28;998;-45
2022/01/01 08:10:02;;;;;;;;;;;;;;;6.03;75.03;95696.59;5116146;28;1036;-45
2022/01/01 08:12:28;;;;;;;;;;;;;;;5.51;77.10;95684.63;5116423;28;1216;-44
2022/01/01 08:14:56;;;;;;;;;;;;;;;5.24;78.70;95680.47;5115883;28;1139;-47
2022/01/01 08:17:23;;;;;;;;;;;;;;;5.09;79.26;95673.66;5116275;28;1104;-46
2022/01/01 08:19:52;;;;;;;;;;;;;;;5.20;79.71;95680.84;5116268;28;1051;-45
2022/01/01 08:22:18;;;;;;;;;;;;;;;5.21;80.08;95678.03;5116297;28;1901;-44
2022/01/01 08:24:44;;;;;;;;;;;;;;;5.36;79.43;95688.47;5115853;28;1036;-44
2022/01/01 08:27:10;;;;;;;;;;;;;;;5.60;79.17;95691.91;5116111;28;1294;-50
2022/01/01 08:29:36;;;;;;;;;;;;;;;5.71;79.10;95690.22;5115783;28;1095;-46
2022/01/01 08:32:02;;;;;;;;;;;;;;;5.83;79.00;95678.69;5115881;28;1957;-46
2022/01/01 08:34:28;;;;;;;;;;;;;;;6.01;77.49;95679.94;5115760;28;1044;-45
2022/01/01 08:36:55;;;;;;;;;;;;;;;6.01;77.36;95673.75;5115834;28;1185;-45
2022/01/01 08:39:21;;;;;;;;;;;;;;;6.19;77.24;95685.59;5115752;28;1080;-45
2022/01/01 08:41:47;;;;;;;;;;;;;;;6.09;78.14;95670.50;5115589;28;1905;-45
2022/01/01 08:44:13;;;;;;;;;;;;;;;5.94;78.62;95673.38;5115977;28;1011;-45
2022/01/01 08:46:39;;;;;;;;;;;;;;;5.90;78.75;95674.59;5115421;28;1016;-45
2022/01/01 08:49:05;;;;;;;;;;;;;;;5.94;79.55;95686.66;5115607;28;1964;-46
2022/01/01 08:51:35;;;;;;;;;;;;;;;5.89;79.42;95691.47;5115763;28;1078;-46
2022/01/01 08:54:02;;;;;;;;;;;;;;;5.96;79.66;95690.06;5115543;28;1971;-45
2022/01/01 08:56:28;;;;;;;;;;;;;;;5.93;79.13;95689.41;5115484;28;1055;-45
2022/01/01 08:58:54;;;;;;;;;;;;;;;5.94;79.48;95686.66;5115406;28;1008;-45
2022/01/01 09:01:20;;;;;;;;;;;;;;;6.22;78.81;95695.97;5115343;28;1979;-45
2022/01/01 09:03:46;;;;;;;;;;;;;;;6.48;76.86;95698.38;5115670;28;997;-45
2022/01/01 09:06:12;;;;;;;;;;;;;;;6.44;76.92;95705.72;5115380;28;1049;-45
2022/01/01 09:08:39;;;;;;;;;;;;;;;6.49;77.09;95699.19;5115233;28;1076;-45
2022/01/01 09:11:06;;;;;;;;;;;;;;;6.27;77.57;95689.47;5115034;28;1153;-46
2022/01/01 09:13:32;;;;;;;;;;;;;;;6.34;77.96;95694.16;5114983;28;1377;-46
2022/01/01 09:15:59;;;;;;;;;;;;;;;6.39;78.11;95691.13;5114898;28;1079;-45
2022/01/01 09:18:25;;;;;;;;;;;;;;;6.55;77.47;95694.25;5115164;28;1007;-46
2022/01/01 09:20:52;;;;;;;;;;;;;;;6.72;77.67;95695.56;5114735;28;1910;-45
2022/01/01 09:23:18;;;;;;;;;;;;;;;6.74;77.69;95706.06;5115126;28;991;-45
2022/01/01 09:25:45;;;;;;;;;;;;;;;6.62;78.20;95692.81;5114866;28;1139;-45
2022/01/01 09:28:11;;;;;;;;;;;;;;;6.63;78.42;95685.66;5115121;28;956;-46
2022/01/01 09:30:37;;;;;;;;;;;;;;;6.87;77.29;95684.63;5114647;28;1850;-45
2022/01/01 09:33:04;;;;;;;;;;;;;;;7.31;76.14;95688.13;5147999;27;1015;-46
2022/01/01 09:35:30;;;;;;;;;;;;;;;9.34;70.08;95683.75;5114599;28;1019;-44
2022/01/01 09:37:56;;;;;;;;;;;;;;;10.03;67.97;95697.88;5114902;28;960;-45
2022/01/01 09:40:22;;;;;;;;;;;;;;;10.02;67.22;95699.72;5114641;28;1404;-45
2022/01/01 09:42:48;;;;;;;;;;;;;;;9.68;68.03;95692.16;5114601;28;1992;-44
2022/01/01 09:45:14;;;;;;;;;;;;;;;8.92;71.07;95705.34;5114581;28;1094;-45
2022/01/01 09:47:41;;;;;;;;;;;;;;;8.94;71.21;95706.06;5114666;28;988;-44
2022/01/01 09:50:08;;;;;;;;;;;;;;;8.83;71.04;95703.50;5114420;28;1008;-44
2022/01/01 09:52:34;;;;;;;;;;;;;;;9.01;69.87;95701.88;5114573;28;1015;-44
2022/01/01 09:55:00;;;;;;;;;;;;;;;10.82;65.24;95715.34;5114496;27;1071;-45
2022/01/01 09:57:26;;;;;;;;;;;;;;;9.85;67.87;95708.47;5114537;28;972;-45
2022/01/01 09:59:52;;;;;;;;;;;;;;;9.02;70.50;95713.38;5114486;28;1034;-45
2022/01/01 10:02:18;;;;;;;;;;;;;;;8.55;71.77;95716.59;5114032;28;1909;-45
2022/01/01 10:04:50;;;;;;;;;;;;;;;8.12;73.72;95713.16;5114480;28;1038;-45
2022/01/01 10:07:16;;;;;;;;;;;;;;;8.07;74.54;95710.03;5114387;28;1042;-45
2022/01/01 10:09:42;;;;;;;;;;;;;;;8.45;73.34;95710.41;5114140;28;1063;-45
2022/01/01 10:12:10;;;;;;;;;;;;;;;8.48;72.34;95704.78;5113806;28;1160;-46
2022/01/01 10:14:37;;;;;;;;;;;;;;;8.46;72.43;95706.75;5113767;28;1299;-46
2022/01/01 10:17:17;;;;;;;;;;;;;;;8.14;73.93;95689.06;5113846;28;1019;-46
2022/01/01 10:19:44;;;;;;;;;;;;;;;7.95;75.27;95687.16;5114111;28;973;-45
2022/01/01 10:22:13;;;;;;;;;;;;;;;8.05;75.81;95692.53;5113874;28;1909;-46
2022/01/01 10:27:47;;;;;;;;;;;;;;;7.98;75.93;95695.69;5105015;28;1082;-46
2022/01/01 10:30:18;;;;;;;;;;;;;;;7.99;76.08;95705.38;5113548;28;1051;-46
2022/01/01 10:33:03;;;;;;;;;;;;;;;8.12;75.94;95701.66;5113924;28;980;-45
2022/01/01 10:35:34;;;;;;;;;;;;;;;8.23;76.08;95704.22;5114190;28;1001;-45
2022/01/01 10:38:02;;;;;;;;;;;;;;;8.31;75.23;95693.75;5113903;28;996;-45
2022/01/01 10:40:28;;;;;;;;;;;;;;;8.59;74.53;95691.34;5113738;28;1451;-45
2022/01/01 10:42:55;;;;;;;;;;;;;;;8.91;73.66;95684.97;5113393;28;1910;-46
2022/01/01 10:45:30;;;;;;;;;;;;;;;9.53;71.88;95691.75;5113723;28;1019;-46
2022/01/01 10:50:42;;;;;;;;;;;;;;;13.55;59.49;95688.38;5113735;28;905;-45
2022/01/01 10:53:12;;;;;;;;;;;;;;;12.31;62.15;95687.06;5113645;28;1047;-46
2022/01/01 10:55:45;;;;;;;;;;;;;;;11.55;64.89;95693.00;5113928;28;1036;-46
2022/01/01 10:58:43;;;;;;;;;;;;;;;11.26;66.46;95681.53;5113938;28;1144;-46
2022/01/01 11:01:10;;;;;;;;;;;;;;;12.23;63.16;95678.97;5068669;28;1914;-45
2022/01/01 11:03:37;;;;;;;;;;;;;;;13.17;60.61;95691.47;5113427;28;944;-46
2022/01/01 11:06:08;;;;;;;;;;;;;;;14.00;58.05;95682.50;5113571;28;1132;-46
2022/01/01 11:08:35;;;;;;;;;;;;;;;14.09;57.92;95691.38;5113384;28;1111;-46
2022/01/01 11:11:01;;;;;;;;;;;;;;;14.20;57.34;95690.19;5113350;28;1208;-46
2022/01/01 11:13:28;;;;;;;;;;;;;;;13.31;59.78;95683.81;5113294;28;1671;-46
2022/01/01 11:15:54;;;;;;;;;;;;;;;12.00;63.33;95684.03;5112243;28;1125;-45
2022/01/01 11:18:21;;;;;;;;;;;;;;;11.25;65.88;95685.22;5113588;28;1074;-46
2022/01/01 11:20:48;;;;;;;;;;;;;;;10.99;67.57;95682.44;5113410;28;1036;-45
2022/01/01 11:23:14;;;;;;;;;;;;;;;10.77;68.51;95678.31;5113129;28;1973;-46
2022/01/01 11:25:40;;;;;;;;;;;;;;;10.83;68.99;95680.44;5113277;28;1028;-46
2022/01/01 11:28:08;;;;;;;;;;;;;;;10.82;69.58;95673.38;5113206;28;1023;-46
2022/01/01 11:30:36;;;;;;;;;;;;;;;10.84;68.96;95665.22;5113487;28;968;-46
2022/01/01 11:33:05;;;;;;;;;;;;;;;11.20;67.97;95652.72;5113214;28;984;-46
2022/01/01 11:35:33;;;;;;;;;;;;;;;12.54;64.67;95657.00;5113328;28;1021;-45
2022/01/01 11:38:10;;;;;;;;;;;;;;;13.41;62.02;95647.75;5112011;28;1007;-46
2022/01/01 11:40:45;;;;;;;;;;;;;;;13.91;61.00;95650.44;5113299;28;2074;-46
2022/01/01 11:43:30;;;;;;;;;;;;;;;13.34;62.25;95645.88;5116229;28;1914;-47
2022/01/01 11:45:57;;;;;;;;;;;;;;;13.14;62.84;95653.34;5116989;28;984;-46
2022/01/01 11:48:26;;;;;;;;;;;;;;;12.87;63.54;95658.00;5116704;28;1018;-46
2022/01/01 11:50:52;;;;;;;;;;;;;;;12.76;63.85;95666.34;5116971;28;1132;-46
2022/01/01 11:53:31;;;;;;;;;;;;;;;12.96;63.06;95659.69;5116901;28;1059;-45
2022/01/01 11:56:10;;;;;;;;;;;;;;;13.26;63.07;95668.13;5116993;28;976;-46
2022/01/01 11:58:46;;;;;;;;;;;;;;;13.33;62.50;95669.19;5116472;28;1051;-46
2022/01/01 12:01:14;;;;;;;;;;;;;;;13.03;63.34;95663.41;5116804;28;1913;-46
2022/01/01 12:03:50;;;;;;;;;;;;;;;12.98;62.45;95670.28;5116349;28;1082;-45
2022/01/01 12:06:16;;;;;;;;;;;;;;;12.85;62.95;95670.72;5116587;28;1256;-46
2022/01/01 12:08:44;;;;;;;;;;;;;;;12.84;63.54;95655.63;5116635;27;995;-46
2022/01/01 12:11:26;;;;;;;;;;;;;;;12.81;63.17;95658.66;5116547;28;1200;-46
2022/01/01 12:13:56;;;;;;;;;;;;;;;12.93;62.90;95645.75;5115944;28;1373;-47
2022/01/01 12:16:22;;;;;;;;;;;;;;;13.13;62.88;95651.66;5116578;28;987;-45
2022/01/01 12:18:48;;;;;;;;;;;;;;;12.89;63.42;95643.41;5116197;28;1002;-46
2022/01/01 12:21:22;;;;;;;;;;;;;;;12.67;63.71;95639.47;5116120;28;1989;-45
2022/01/01 12:23:48;;;;;;;;;;;;;;;12.44;64.36;95636.50;5116288;28;1108;-45
2022/01/01 12:26:14;;;;;;;;;;;;;;;12.42;64.71;95635.00;5115983;28;980;-45
2022/01/01 12:28:43;;;;;;;;;;;;;;;12.34;64.86;95641.16;5116288;28;1080;-45
2022/01/01 12:31:29;;;;;;;;;;;;;;;12.26;64.80;95644.66;5116058;28;1032;-45
2022/01/01 12:33:59;;;;;;;;;;;;;;;11.89;65.90;95650.25;5116103;28;1047;-45
2022/01/01 12:36:31;;;;;;;;;;;;;;;11.65;66.40;95641.06;5116290;28;1083;-45
2022/01/01 12:39:00;;;;;;;;;;;;;;;11.66;66.05;95639.19;5115964;28;1055;-45
2022/01/01 12:41:31;;;;;;;;;;;;;;;11.89;65.33;95651.13;5115722;28;1910;-45
2022/01/01 12:43:58;;;;;;;;;;;;;;;12.05;64.91;95645.03;5115590;28;1864;-45
2022/01/01 12:46:26;;;;;;;;;;;;;;;12.26;64.31;95651.88;5116066;28;1024;-48
2022/01/01 12:48:53;;;;;;;;;;;;;;;12.42;63.48;95651.94;5115773;28;992;-45
2022/01/01 12:51:21;;;;;;;;;;;;;;;12.54;63.97;95657.88;5115575;28;1075;-45
2022/01/01 12:53:52;;;;;;;;;;;;;;;12.56;62.86;95658.56;5115228;28;1051;-45
2022/01/01 12:56:19;;;;;;;;;;;;;;;12.59;63.25;95654.69;5115589;28;1088;-46
2022/01/01 12:58:47;;;;;;;;;;;;;;;12.58;63.34;95664.59;5115600;28;1075;-45
2022/01/01 13:01:15;;;;;;;;;;;;;;;12.53;63.73;95664.22;5115474;28;1914;-46
2022/01/01 13:03:49;;;;;;;;;;;;;;;12.48;64.07;95658.50;5115273;28;1086;-45
2022/01/01 13:06:35;;;;;;;;;;;;;;;12.53;63.87;95664.22;5115442;28;1075;-46
2022/01/01 13:09:02;;;;;;;;;;;;;;;12.53;63.98;95674.94;5115589;28;984;-45
2022/01/01 13:11:29;;;;;;;;;;;;;;;12.54;64.02;95675.78;5115301;28;1278;-46
2022/01/01 13:13:56;;;;;;;;;;;;;;;12.41;64.53;95673.56;5115179;28;1202;-46
2022/01/01 13:16:22;;;;;;;;;;;;;;;12.34;65.08;95672.50;5115408;28;995;-45